Mount Vernon, AL (36560)

12:42 PM CST on February 20, 2017 (GMT -0600)
ME0390 | | Change Station

Elev 49 ft 31.15 °N, 88.00 °W | Updated 32 minutes ago

Partly Cloudy
Partly Cloudy
78.0 °F
Feels Like 79 °F
N
1.0
Wind Variable Wind from SSW
Gusts 3.0 mph

Today
High -- | Low -- °F
--% Chance of Precip.
Yesterday
High -- | Low -- °F
Precip. -- in
Pressure 30.10 in
Visibility 10.0 miles
Clouds Few 2500 ft
Mostly Cloudy 25000 ft
Heat Index 79 °F
Dew Point 59 °F
Humidity 52%
Rainfall 0.00 in
Snow Depth Not available.
6:28 AM 5:43 PM
Waning Crescent, 32% visible
METAR KMOB 201756Z 12013KT 10SM FEW025 BKN250 26/15 A3011 RMK AO2 SLP193 T02560150 10256 20161 58004
Pressure 30.10 in
Visibility 10.0 miles
Clouds Few 2500 ft
Mostly Cloudy 25000 ft
Heat Index 79 °F
Dew Point 59 °F
Humidity 52%
Rainfall 0.00 in
Snow Depth Not available.
6:28 AM 5:43 PM
Waning Crescent, 32% visible
METAR KMOB 201756Z 12013KT 10SM FEW025 BKN250 26/15 A3011 RMK AO2 SLP193 T02560150 10256 20161 58004

Get Your Daily Forecast Email!

Thanks for signing up!

Be on the lookout for a verification email in your inbox.

You'll start receiving the daily forecast at 8 AM.

×

10-Day Weather Forecast

Almanac

Astronomy

Feb. 20, 2017 Rise Set
Actual Time
Civil Twilight
Nautical Twilight
Astronomical Twilight
Moon
Length of Visible Light
Length of Day
Tomorrow will be .
, % of the Moon is Illuminated

Today's Extremes

State Highs State Lows

Community

WunderPhotos

Upload Photos

1,962,540 photos uploaded!

WunderBlog® & News

Nearby

Air Quality

  Air Quality AQ Index Pollutant
Not available.

Snow Depth

Station Depth Elevation

Earthquake Activity

City Distance Mag. Time & Date
Minimum magnitude displayed is 2.5.

Coastal Water Temperatures

Place Temperature

Stations

Nearby Weather Stations

Station Location Temp. Windchill Dew Point Humidity Wind Precip. Elev Updated Type
                   

Watches & Warnings

There are currently no watches in effect.